Time;durP1;ratioP1;P1;durP2;ratioP2;P2;SDS_P1;SDS_P2;PMS_P1;PMS_P2;Temp;Humidity;BMP_temperature;BMP_pressure;BME280_temperature;BME280_humidity;BME280_pressure;Samples;Min_cycle;Max_cycle;Signal;HPM_P1;HPM_P2
2022/09/17 00:01:42;;;;;;;7.30;1.02;;;10.50;99.90;;;;;;7365825;32;20476;-59
2022/09/17 00:05:44;;;;;;;5.57;0.90;;;10.40;99.90;;;;;;7375367;32;20115;-60
2022/09/17 00:09:46;;;;;;;10.00;1.52;;;10.40;99.90;;;;;;7364251;32;20206;-59
2022/09/17 00:13:49;;;;;;;9.43;1.45;;;10.40;99.90;;;;;;7375048;32;20121;-59
2022/09/17 00:17:56;;;;;;;5.25;0.98;;;10.40;99.90;;;;;;7363295;32;20290;-59
2022/09/17 00:21:58;;;;;;;8.75;1.42;;;10.40;99.90;;;;;;7370982;32;20493;-59
2022/09/17 00:26:05;;;;;;;11.68;1.50;;;10.40;99.90;;;;;;7372909;32;20233;-59
2022/09/17 00:30:07;;;;;;;11.73;1.90;;;10.50;99.90;;;;;;7367190;32;20213;-58
2022/09/17 00:34:09;;;;;;;6.97;1.25;;;10.40;99.90;;;;;;7375987;32;20128;-59
2022/09/17 00:38:10;;;;;;;8.07;1.42;;;10.40;99.90;;;;;;7357940;32;20104;-59
2022/09/17 00:42:14;;;;;;;9.65;1.90;;;10.30;99.90;;;;;;7364952;32;20129;-60
2022/09/17 00:46:39;;;;;;;12.20;1.60;;;10.30;99.90;;;;;;7365052;32;20175;-58
2022/09/17 00:50:43;;;;;;;10.13;1.42;;;10.40;99.90;;;;;;7364680;32;20188;-58
2022/09/17 00:54:53;;;;;;;7.03;1.30;;;10.30;99.90;;;;;;7363606;32;20115;-59
2022/09/17 00:58:55;;;;;;;13.05;1.65;;;10.30;99.90;;;;;;7364413;32;20126;-59
2022/09/17 01:02:57;;;;;;;15.23;1.92;;;10.30;99.90;;;;;;7366030;32;20099;-58
2022/09/17 01:07:08;;;;;;;9.82;1.70;;;10.30;99.90;;;;;;7363344;32;20115;-58
2022/09/17 01:11:14;;;;;;;8.05;1.40;;;10.30;99.90;;;;;;7362858;32;20129;-59
2022/09/17 01:15:24;;;;;;;9.70;1.80;;;10.20;99.90;;;;;;7364876;32;20134;-58
2022/09/17 01:19:32;;;;;;;10.30;2.05;;;10.20;99.90;;;;;;7360701;32;20111;-58
2022/09/17 01:24:01;;;;;;;12.30;2.22;;;10.20;99.90;;;;;;7381092;32;20250;-59
2022/09/17 01:28:26;;;;;;;9.40;2.17;;;10.20;99.90;;;;;;7371995;32;20138;-59
2022/09/17 01:33:22;;;;;;;17.58;2.40;;;10.20;99.90;;;;;;7369690;32;20118;-59
2022/09/17 01:37:31;;;;;;;15.68;2.00;;;10.10;99.90;;;;;;7301491;32;20471;-59
2022/09/17 01:42:11;;;;;;;9.38;2.12;;;10.10;99.90;;;;;;7367208;32;20121;-59
2022/09/17 01:46:21;;;;;;;9.52;2.62;;;10.10;99.90;;;;;;7365387;32;20103;-59
2022/09/17 01:50:28;;;;;;;9.98;2.30;;;10.00;99.90;;;;;;7364535;32;22010;-59
2022/09/17 01:54:36;;;;;;;;;;;9.90;99.90;;;;;;7367589;32;20111;-59
2022/09/17 01:59:16;;;;;;;9.75;2.37;;;10.00;99.90;;;;;;7370578;32;20112;-60
2022/09/17 02:03:26;;;;;;;7.07;2.40;;;10.00;99.90;;;;;;7362843;32;20107;-59
2022/09/17 02:07:30;;;;;;;13.30;2.97;;;10.00;99.90;;;;;;7367539;32;20125;-59
2022/09/17 02:11:35;;;;;;;7.12;2.72;;;10.00;99.90;;;;;;7369778;32;20134;-59
2022/09/17 02:15:42;;;;;;;8.98;2.85;;;10.10;99.90;;;;;;7367326;32;20130;-59
2022/09/17 02:19:44;;;;;;;12.90;2.57;;;10.10;99.90;;;;;;7362118;32;20141;-59
2022/09/17 02:24:18;;;;;;;12.07;2.00;;;10.10;99.90;;;;;;7376108;32;20789;-59
2022/09/17 02:28:44;;;;;;;8.50;2.40;;;10.10;99.90;;;;;;7360280;32;20771;-59
2022/09/17 02:32:45;;;;;;;11.43;2.60;;;10.20;99.90;;;;;;7371755;32;20137;-59
2022/09/17 02:36:47;;;;;;;12.40;2.60;;;10.20;99.90;;;;;;7367305;32;20249;-59
2022/09/17 02:40:55;;;;;;;12.70;2.70;;;10.20;99.90;;;;;;7364786;32;20125;-59
2022/09/17 02:45:23;;;;;;;10.63;2.83;;;10.20;99.90;;;;;;7372445;32;20107;-59
2022/09/17 02:49:48;;;;;;;9.95;2.20;;;10.20;99.90;;;;;;7367484;32;20549;-59
2022/09/17 02:54:01;;;;;;;12.55;2.50;;;10.20;99.90;;;;;;7368183;32;20126;-59
2022/09/17 02:58:23;;;;;;;13.60;2.50;;;10.20;99.90;;;;;;7372118;32;20107;-59
2022/09/17 03:02:32;;;;;;;17.92;2.40;;;10.20;99.90;;;;;;7367043;32;20115;-59
2022/09/17 03:06:34;;;;;;;12.43;2.40;;;10.20;99.90;;;;;;7371506;32;20573;-59
2022/09/17 03:10:36;;;;;;;10.48;2.53;;;10.10;99.90;;;;;;7372902;32;20099;-59
2022/09/17 03:14:38;;;;;;;13.05;2.28;;;10.00;99.90;;;;;;7369025;32;20134;-59
2022/09/17 03:18:39;;;;;;;12.02;2.12;;;10.00;99.90;;;;;;7375543;32;20091;-59
2022/09/17 03:22:41;;;;;;;15.07;1.90;;;10.00;99.90;;;;;;7365661;32;20197;-60
2022/09/17 03:26:43;;;;;;;13.15;2.15;;;10.10;99.90;;;;;;7372833;32;20129;-59
2022/09/17 03:30:45;;;;;;;12.82;2.15;;;10.10;99.90;;;;;;7367366;32;20555;-59
2022/09/17 03:34:47;;;;;;;8.63;2.00;;;10.10;99.90;;;;;;7364347;32;20655;-59
2022/09/17 03:38:54;;;;;;;11.52;2.00;;;10.10;99.90;;;;;;7368524;32;20133;-59
2022/09/17 03:42:56;;;;;;;15.52;2.17;;;10.10;99.90;;;;;;7364654;32;20112;-58
2022/09/17 03:46:57;;;;;;;10.85;2.15;;;10.10;99.90;;;;;;7369480;32;20119;-59
2022/09/17 03:51:00;;;;;;;11.32;2.10;;;10.10;99.90;;;;;;7372358;32;20221;-59
2022/09/17 03:55:02;;;;;;;16.17;2.45;;;10.10;99.90;;;;;;7369131;32;20269;-59
2022/09/17 03:59:04;;;;;;;17.00;2.10;;;10.20;99.90;;;;;;7371570;32;20158;-59
2022/09/17 04:03:05;;;;;;;11.77;1.75;;;10.20;99.90;;;;;;7363935;32;20103;-59
2022/09/17 04:07:07;;;;;;;18.58;1.95;;;10.20;99.90;;;;;;7372404;32;20119;-59
2022/09/17 04:11:09;;;;;;;11.00;1.65;;;10.30;99.90;;;;;;7362942;32;20137;-60
2022/09/17 04:15:11;;;;;;;14.07;1.45;;;10.30;99.90;;;;;;7363650;32;20704;-59
2022/09/17 04:19:12;;;;;;;11.82;1.77;;;10.20;99.90;;;;;;7367364;32;20145;-59
2022/09/17 04:23:14;;;;;;;12.60;2.47;;;10.20;99.90;;;;;;7366162;32;20115;-59
2022/09/17 04:27:16;;;;;;;11.95;2.08;;;10.30;99.90;;;;;;7372995;32;20102;-59
2022/09/17 04:31:17;;;;;;;14.87;1.98;;;10.20;99.90;;;;;;7371490;32;20112;-59
2022/09/17 04:35:19;;;;;;;12.40;1.75;;;10.30;99.90;;;;;;7364762;32;20119;-60
2022/09/17 04:39:21;;;;;;;15.57;2.95;;;10.30;99.90;;;;;;7364567;32;20107;-61
2022/09/17 04:43:22;;;;;;;8.88;2.72;;;10.40;99.90;;;;;;7367998;32;20133;-60
2022/09/17 04:47:25;;;;;;;15.23;3.05;;;10.30;99.90;;;;;;7374601;32;20099;-59
2022/09/17 04:51:26;;;;;;;8.82;2.03;;;10.30;99.90;;;;;;7366427;32;20230;-60
2022/09/17 04:55:28;;;;;;;12.30;1.70;;;10.30;99.90;;;;;;7374140;32;20103;-59
2022/09/17 04:59:30;;;;;;;11.07;1.77;;;10.30;99.90;;;;;;7367405;32;20164;-59
2022/09/17 05:03:31;;;;;;;12.37;2.10;;;10.20;99.90;;;;;;7367246;32;21051;-59
2022/09/17 05:07:33;;;;;;;6.90;1.48;;;10.20;99.90;;;;;;7363273;32;20755;-59
2022/09/17 05:11:35;;;;;;;13.55;2.87;;;10.20;99.90;;;;;;7370102;32;20103;-59
2022/09/17 05:15:36;;;;;;;16.12;3.42;;;10.20;99.90;;;;;;7373568;32;20088;-59
2022/09/17 05:19:38;;;;;;;11.05;2.15;;;10.10;99.90;;;;;;7364331;32;20118;-59
2022/09/17 05:23:40;;;;;;;11.82;1.30;;;10.00;99.90;;;;;;7367512;32;20152;-59
2022/09/17 05:27:42;;;;;;;10.57;1.62;;;10.00;99.90;;;;;;7367358;32;20205;-60
2022/09/17 05:31:44;;;;;;;12.93;1.50;;;9.90;99.90;;;;;;7367687;32;20103;-60
2022/09/17 05:35:46;;;;;;;14.60;1.73;;;9.90;99.90;;;;;;7371310;32;20197;-61
2022/09/17 05:39:47;;;;;;;8.63;1.40;;;9.80;99.90;;;;;;7368882;32;20443;-59
2022/09/17 05:43:50;;;;;;;7.20;1.25;;;9.90;99.90;;;;;;7368028;32;20795;-61
2022/09/17 05:47:58;;;;;;;10.38;1.67;;;9.90;99.90;;;;;;7363168;32;20190;-61
2022/09/17 05:52:02;;;;;;;11.50;1.90;;;9.90;99.90;;;;;;7359919;32;20112;-59
2022/09/17 05:56:04;;;;;;;7.85;1.42;;;10.10;99.90;;;;;;7365418;32;20111;-62
2022/09/17 06:00:06;;;;;;;11.57;1.87;;;10.20;99.90;;;;;;7359924;32;20104;-63
2022/09/17 06:04:08;;;;;;;9.25;1.48;;;10.10;99.90;;;;;;7367230;32;20103;-63
2022/09/17 06:08:10;;;;;;;12.15;1.12;;;10.20;99.90;;;;;;7366214;32;20153;-63
2022/09/17 06:12:11;;;;;;;13.07;1.60;;;10.20;99.90;;;;;;7371991;32;20221;-63
2022/09/17 06:16:13;;;;;;;9.73;1.50;;;10.20;99.90;;;;;;7367187;32;20596;-60
2022/09/17 06:20:15;;;;;;;9.70;1.08;;;10.20;99.90;;;;;;7357884;32;20129;-60
2022/09/17 06:24:16;;;;;;;12.80;1.87;;;10.30;99.90;;;;;;7361401;32;20122;-62
2022/09/17 06:28:18;;;;;;;12.90;1.67;;;10.30;99.90;;;;;;7356816;32;20215;-60
2022/09/17 06:32:20;;;;;;;11.80;1.60;;;10.20;99.90;;;;;;7372905;32;20096;-60
2022/09/17 06:36:22;;;;;;;9.15;1.92;;;10.20;99.90;;;;;;7362377;32;20237;-60
2022/09/17 06:40:23;;;;;;;12.60;1.73;;;10.20;99.90;;;;;;7366362;32;20493;-60
2022/09/17 06:44:25;;;;;;;10.32;1.37;;;10.10;99.90;;;;;;7360660;32;20141;-60
2022/09/17 06:48:28;;;;;;;12.15;1.75;;;10.10;99.90;;;;;;7362959;32;20103;-61
2022/09/17 06:52:30;;;;;;;12.15;1.50;;;10.10;99.90;;;;;;7363718;32;20113;-61
2022/09/17 06:56:33;;;;;;;8.68;1.98;;;10.20;99.90;;;;;;7366062;32;20213;-61
2022/09/17 07:00:35;;;;;;;8.02;1.58;;;10.30;99.90;;;;;;7372660;32;20113;-61
2022/09/17 07:04:36;;;;;;;12.45;2.10;;;10.50;99.90;;;;;;7366722;32;20107;-61
2022/09/17 07:08:38;;;;;;;12.60;1.60;;;10.50;99.90;;;;;;7374634;32;20153;-61
2022/09/17 07:12:40;;;;;;;12.90;1.40;;;10.60;99.90;;;;;;7369887;32;20100;-60
2022/09/17 07:16:47;;;;;;;7.37;1.45;;;10.70;99.90;;;;;;7366338;32;20115;-61
2022/09/17 07:20:53;;;;;;;12.90;1.52;;;10.60;99.90;;;;;;7370972;32;20111;-62
2022/09/17 07:24:54;;;;;;;7.47;1.73;;;10.60;99.90;;;;;;7375721;32;20100;-62
2022/09/17 07:28:56;;;;;;;7.87;1.90;;;10.70;99.90;;;;;;7369667;32;20099;-61
2022/09/17 07:33:01;;;;;;;10.05;1.62;;;10.60;99.90;;;;;;7367186;32;20480;-61
2022/09/17 07:37:02;;;;;;;7.47;1.58;;;10.70;99.90;;;;;;7375452;32;20636;-61
2022/09/17 07:41:12;;;;;;;8.23;1.55;;;10.90;99.90;;;;;;7366322;32;20127;-62
2022/09/17 07:45:13;;;;;;;10.43;1.55;;;11.10;99.90;;;;;;7370586;32;20121;-60
2022/09/17 07:49:15;;;;;;;11.35;1.48;;;11.20;99.90;;;;;;7373339;32;20189;-60
2022/09/17 07:53:17;;;;;;;9.77;1.50;;;11.30;99.90;;;;;;7366339;32;20104;-60
2022/09/17 07:57:19;;;;;;;9.90;1.52;;;11.30;99.90;;;;;;7366926;32;20095;-61
2022/09/17 08:01:21;;;;;;;10.30;1.75;;;11.40;99.90;;;;;;7373268;32;20159;-60
2022/09/17 08:05:24;;;;;;;8.85;1.50;;;11.50;99.90;;;;;;7367774;32;20198;-61
2022/09/17 08:09:25;;;;;;;6.97;1.17;;;11.60;99.90;;;;;;7369389;32;20237;-60
2022/09/17 08:13:27;;;;;;;9.25;1.12;;;11.80;99.90;;;;;;7369702;32;20126;-62
2022/09/17 08:17:29;;;;;;;8.88;1.33;;;12.10;99.90;;;;;;7375396;32;20151;-63
2022/09/17 08:21:31;;;;;;;7.28;1.05;;;12.20;99.90;;;;;;7368512;32;20178;-64
2022/09/17 08:25:32;;;;;;;9.27;1.30;;;12.30;99.90;;;;;;7375285;32;20662;-62
2022/09/17 08:29:34;;;;;;;7.40;1.23;;;12.30;99.90;;;;;;7372764;32;20679;-62
2022/09/17 08:33:38;;;;;;;7.80;1.10;;;12.30;99.90;;;;;;7377902;32;20488;-61
2022/09/17 08:37:39;;;;;;;7.03;1.15;;;12.70;99.90;;;;;;7367266;32;20094;-59
2022/09/17 08:42:01;;;;;;;9.77;1.02;;;12.70;99.90;;;;;;7367741;32;20133;-60
2022/09/17 08:46:03;;;;;;;8.07;1.35;;;12.90;99.90;;;;;;7376375;32;20333;-61
2022/09/17 08:50:31;;;;;;;11.73;1.48;;;13.00;99.90;;;;;;7368932;32;20111;-62
2022/09/17 08:54:38;;;;;;;;;;;13.00;99.90;;;;;;7369880;32;20220;-61
2022/09/17 08:59:13;;;;;;;6.57;1.30;;;13.00;99.90;;;;;;7363908;32;20105;-64
2022/09/17 09:03:40;;;;;;;7.35;1.08;;;12.90;99.90;;;;;;7369561;32;20826;-64
2022/09/17 09:08:00;;;;;;;8.95;1.85;;;13.00;99.90;;;;;;7361420;32;20144;-60
2022/09/17 09:12:36;;;;;;;6.47;1.42;;;13.20;99.90;;;;;;7374614;32;20137;-61
2022/09/17 09:16:41;;;;;;;9.68;1.60;;;13.40;99.90;;;;;;7366276;32;20729;-61
2022/09/17 09:20:48;;;;;;;7.32;1.10;;;13.50;99.90;;;;;;7362443;32;20225;-62
2022/09/17 09:25:12;;;;;;;;;;;13.70;99.90;;;;;;7369179;32;20486;-62
2022/09/17 09:29:27;;;;;;;8.55;1.40;;;14.00;99.90;;;;;;7363523;32;20413;-61
2022/09/17 09:33:34;;;;;;;12.10;1.20;;;14.80;99.90;;;;;;7371336;32;20131;-63
2022/09/17 09:37:41;;;;;;;7.12;1.58;;;15.10;99.90;;;;;;7368374;32;20718;-64
2022/09/17 09:41:49;;;;;;;;;;;14.60;99.90;;;;;;7364724;32;20684;-60
2022/09/17 09:46:05;;;;;;;6.20;0.80;;;14.40;99.90;;;;;;7361724;32;20013;-61
2022/09/17 09:50:29;;;;;;;7.75;1.02;;;15.60;99.90;;;;;;7365508;32;20550;-60
2022/09/17 09:55:31;;;;;;;5.90;0.70;;;16.30;99.90;;;;;;7370742;32;20171;-60
2022/09/17 09:59:35;;;;;;;5.35;0.90;;;15.50;99.90;;;;;;7367273;32;20163;-60
2022/09/17 10:03:40;;;;;;;7.45;1.00;;;14.90;99.90;;;;;;7364963;32;20166;-60
2022/09/17 10:07:44;;;;;;;8.20;1.23;;;14.60;99.90;;;;;;7367154;32;20104;-60
2022/09/17 10:11:59;;;;;;;3.85;0.82;;;14.40;99.90;;;;;;7364682;32;20099;-63
2022/09/17 10:16:24;;;;;;;7.78;0.80;;;14.60;99.90;;;;;;7363706;32;20112;-60
2022/09/17 10:20:26;;;;;;;8.75;0.93;;;15.60;99.90;;;;;;7365726;32;20151;-61
2022/09/17 10:24:30;;;;;;;4.70;1.12;;;16.20;99.90;;;;;;7363002;32;20244;-60
2022/09/17 10:28:47;;;;;;;5.82;0.70;;;15.70;99.90;;;;;;7368397;32;20091;-59
2022/09/17 10:33:21;;;;;;;6.60;1.00;;;15.40;99.90;;;;;;7371398;32;20545;-62
2022/09/17 10:37:43;;;;;;;3.55;0.60;;;15.30;99.90;;;;;;7366279;32;20392;-60
2022/09/17 10:42:20;;;;;;;5.87;0.93;;;15.40;99.90;;;;;;7375072;32;20114;-60
2022/09/17 10:46:29;;;;;;;2.90;0.45;;;15.10;99.90;;;;;;7367355;32;20135;-62
2022/09/17 10:50:33;;;;;;;9.18;0.90;;;14.70;99.90;;;;;;7372961;32;20307;-60
2022/09/17 10:55:04;;;;;;;7.12;1.35;;;14.30;99.90;;;;;;7374608;32;20206;-60
2022/09/17 10:59:29;;;;;;;4.82;0.52;;;14.50;99.90;;;;;;7365283;32;20115;-56
2022/09/17 11:04:05;;;;;;;4.70;0.62;;;14.70;99.90;;;;;;7378338;32;20110;-60
2022/09/17 11:08:19;;;;;;;5.00;1.00;;;14.50;99.90;;;;;;7367509;32;20092;-57
2022/09/17 11:12:44;;;;;;;5.80;0.90;;;14.10;99.90;;;;;;7365831;32;20121;-57
2022/09/17 11:17:09;;;;;;;5.43;0.98;;;13.80;99.90;;;;;;7372530;32;20095;-57
2022/09/17 11:21:57;;;;;;;7.57;1.00;;;14.00;99.90;;;;;;7368765;32;20174;-58
2022/09/17 11:26:07;;;;;;;5.28;0.70;;;14.30;99.90;;;;;;7347058;32;20161;-59
2022/09/17 11:30:18;;;;;;;4.03;0.43;;;15.20;99.90;;;;;;7366444;32;20447;-57
2022/09/17 11:34:35;;;;;;;4.72;0.70;;;15.20;99.90;;;;;;7369155;32;20139;-64
2022/09/17 11:38:51;;;;;;;3.80;0.73;;;14.90;99.90;;;;;;7371646;32;20125;-65
2022/09/17 11:43:13;;;;;;;5.07;0.70;;;14.30;99.90;;;;;;7369363;32;20922;-62
2022/09/17 11:47:23;;;;;;;3.97;0.70;;;13.80;99.90;;;;;;7364021;32;20103;-67
2022/09/17 11:51:30;;;;;;;2.78;0.50;;;13.20;99.90;;;;;;7373014;32;20126;-67
2022/09/17 11:55:49;;;;;;;2.17;0.57;;;12.60;99.90;;;;;;7374208;32;20099;-66
2022/09/17 12:00:04;;;;;;;3.35;0.52;;;12.20;99.90;;;;;;7367921;32;20103;-64
2022/09/17 12:04:30;;;;;;;3.72;0.60;;;12.20;99.90;;;;;;7369900;32;20143;-65
2022/09/17 12:08:55;;;;;;;1.95;0.50;;;11.90;99.90;;;;;;7374950;32;20234;-65
2022/09/17 12:13:01;;;;;;;1.42;0.45;;;11.90;99.90;;;;;;7366598;32;20169;-65
2022/09/17 12:17:04;;;;;;;2.90;0.40;;;12.20;99.90;;;;;;7374779;32;20206;-65
2022/09/17 12:21:12;;;;;;;3.00;0.45;;;12.30;99.90;;;;;;7365536;32;20104;-64
2022/09/17 12:25:14;;;;;;;1.40;0.30;;;12.20;99.90;;;;;;7369137;32;20107;-64
2022/09/17 12:29:35;;;;;;;4.50;0.35;;;12.10;99.90;;;;;;7368700;32;20099;-62
2022/09/17 12:33:44;;;;;;;5.57;0.80;;;11.90;99.90;;;;;;7368166;32;20096;-64
2022/09/17 12:38:01;;;;;;;3.12;0.22;;;11.70;99.90;;;;;;7363930;32;20212;-62
2022/09/17 12:42:32;;;;;;;2.90;0.52;;;11.50;99.90;;;;;;7365958;32;20273;-62
2022/09/17 12:46:52;;;;;;;0.68;0.28;;;11.50;99.90;;;;;;7369805;32;20272;-62
2022/09/17 12:51:08;;;;;;;1.55;0.30;;;11.50;99.90;;;;;;7358940;32;20186;-63
2022/09/17 12:55:43;;;;;;;1.35;0.40;;;11.80;99.90;;;;;;7361643;32;20125;-62
2022/09/17 13:00:05;;;;;;;3.42;0.70;;;12.20;99.90;;;;;;7359834;32;20477;-64
2022/09/17 13:04:51;;;;;;;4.00;1.62;;;12.60;99.90;;;;;;7367589;32;20740;-65
2022/09/17 13:09:54;;;;;;;2.72;1.08;;;12.90;99.90;;;;;;7372813;32;20226;-63
2022/09/17 13:14:04;;;;;;;;;;;13.00;99.90;;;;;;7374225;32;20577;-64
2022/09/17 13:18:44;;;;;;;2.62;0.30;;;13.30;99.90;;;;;;7363542;32;20048;-63
2022/09/17 13:23:06;;;;;;;3.33;0.40;;;13.50;99.90;;;;;;7371973;32;20111;-64
2022/09/17 13:27:21;;;;;;;4.07;0.47;;;13.80;99.90;;;;;;7367098;32;20218;-63
2022/09/17 13:31:37;;;;;;;4.75;0.47;;;14.00;99.90;;;;;;7362687;32;20126;-64
2022/09/17 13:35:39;;;;;;;3.35;0.70;;;14.30;99.90;;;;;;7367642;32;20125;-64
2022/09/17 13:39:46;;;;;;;9.15;1.40;;;14.10;99.90;;;;;;7365813;32;20624;-63
2022/09/17 13:43:48;;;;;;;;;;;14.30;99.90;;;;;;7364093;32;20448;-63
2022/09/17 13:47:57;;;;;;;2.83;0.50;;;14.60;99.90;;;;;;7360108;32;20472;-64
2022/09/17 13:51:59;;;;;;;5.32;0.98;;;15.00;99.90;;;;;;7361102;32;20118;-64
2022/09/17 13:56:35;;;;;;;4.07;0.65;;;15.00;99.90;;;;;;7377493;32;20103;-63
2022/09/17 14:00:50;;;;;;;5.75;0.80;;;14.60;99.90;;;;;;7358342;32;20115;-67
2022/09/17 14:04:54;;;;;;;4.20;0.90;;;13.70;99.90;;;;;;7369675;32;20233;-64
2022/09/17 14:08:56;;;;;;;4.37;0.70;;;11.80;99.90;;;;;;7363836;32;20190;-66
2022/09/17 14:13:23;;;;;;;6.00;1.00;;;10.90;99.90;;;;;;7363703;32;20578;-67
2022/09/17 14:17:49;;;;;;;3.28;0.70;;;10.60;99.90;;;;;;7368279;32;20650;-67
2022/09/17 14:21:59;;;;;;;5.55;0.75;;;10.50;99.90;;;;;;7372445;32;20130;-66
2022/09/17 14:26:07;;;;;;;4.22;0.50;;;10.50;99.90;;;;;;7373475;32;20104;-68
2022/09/17 14:30:17;;;;;;;1.75;0.40;;;10.50;99.90;;;;;;7367658;32;20123;-63
2022/09/17 14:34:22;;;;;;;6.47;0.80;;;10.60;99.90;;;;;;7370138;32;20186;-62
2022/09/17 14:38:49;;;;;;;4.37;0.68;;;10.70;99.90;;;;;;7382834;32;20201;-62
2022/09/17 14:42:55;;;;;;;8.03;0.90;;;10.70;99.90;;;;;;7374830;32;20125;-63
2022/09/17 14:47:10;;;;;;;4.30;0.93;;;10.90;99.90;;;;;;7377481;32;20099;-62
2022/09/17 14:51:18;;;;;;;4.07;1.10;;;11.10;99.90;;;;;;7370221;32;20255;-62
2022/09/17 14:55:26;;;;;;;5.43;1.20;;;11.30;99.90;;;;;;7372181;32;20103;-63
2022/09/17 14:59:28;;;;;;;7.57;1.92;;;11.40;99.90;;;;;;7382950;32;20441;-62
2022/09/17 15:03:30;;;;;;;4.72;1.35;;;11.50;99.90;;;;;;7375348;32;20111;-63
2022/09/17 15:07:31;;;;;;;8.18;1.15;;;11.70;99.90;;;;;;7367352;32;20127;-62
2022/09/17 15:11:39;;;;;;;4.65;1.45;;;11.80;99.90;;;;;;7380906;32;20611;-62
2022/09/17 15:15:55;;;;;;;5.20;0.93;;;11.90;99.90;;;;;;7376752;32;20154;-62
2022/09/17 15:19:58;;;;;;;5.62;0.90;;;12.10;99.90;;;;;;7364392;32;20392;-62
2022/09/17 15:24:30;;;;;;;5.65;1.12;;;12.30;99.90;;;;;;7373701;32;20123;-63
2022/09/17 15:28:32;;;;;;;4.20;0.90;;;12.40;99.90;;;;;;7384304;32;20132;-62
2022/09/17 15:32:34;;;;;;;6.95;1.00;;;12.30;99.90;;;;;;7376642;32;20732;-62
2022/09/17 15:36:36;;;;;;;6.35;1.00;;;12.20;99.90;;;;;;7362053;32;20153;-62
2022/09/17 15:40:40;;;;;;;8.32;1.12;;;12.20;99.90;;;;;;7366035;32;20129;-63
2022/09/17 15:44:42;;;;;;;6.35;1.08;;;12.20;99.90;;;;;;7373950;32;20128;-62
2022/09/17 15:48:44;;;;;;;5.72;0.98;;;12.30;99.90;;;;;;7368572;32;20181;-62
2022/09/17 15:52:47;;;;;;;3.53;0.80;;;12.40;99.90;;;;;;7372724;32;20107;-61
2022/09/17 15:56:55;;;;;;;5.30;0.70;;;12.20;99.90;;;;;;7363494;32;20138;-63
2022/09/17 16:01:15;;;;;;;3.40;0.50;;;12.10;99.90;;;;;;7366794;32;20903;-62
2022/09/17 16:05:37;;;;;;;7.70;0.80;;;12.00;99.90;;;;;;7383908;32;20103;-66
2022/09/17 16:09:47;;;;;;;5.22;1.45;;;11.80;99.90;;;;;;7379764;32;20131;-66
2022/09/17 16:13:50;;;;;;;7.62;1.02;;;11.90;99.90;;;;;;7367318;32;20115;-66
2022/09/17 16:17:52;;;;;;;5.53;0.90;;;11.90;99.90;;;;;;7374615;32;20239;-65
2022/09/17 16:21:54;;;;;;;3.92;0.73;;;11.90;99.90;;;;;;7370416;32;20451;-67
2022/09/17 16:25:56;;;;;;;5.15;0.65;;;12.00;99.90;;;;;;7370649;32;20108;-67
2022/09/17 16:30:04;;;;;;;3.25;0.60;;;11.90;99.90;;;;;;7370114;32;20152;-66
2022/09/17 16:34:06;;;;;;;3.70;0.60;;;12.00;99.90;;;;;;7369091;32;20138;-68
2022/09/17 16:38:08;;;;;;;2.40;0.50;;;12.10;99.90;;;;;;7364781;32;20121;-66
2022/09/17 16:42:10;;;;;;;4.28;0.60;;;12.00;99.90;;;;;;7369148;32;20141;-67
2022/09/17 16:46:11;;;;;;;6.35;0.60;;;12.00;99.90;;;;;;7375353;32;20118;-66
2022/09/17 16:50:15;;;;;;;6.47;0.90;;;11.90;99.90;;;;;;7361298;32;20107;-62
2022/09/17 16:54:17;;;;;;;2.35;0.65;;;11.80;99.90;;;;;;7364282;32;20133;-62
2022/09/17 16:58:18;;;;;;;2.50;0.75;;;11.70;99.90;;;;;;7368116;32;20112;-64
2022/09/17 17:02:20;;;;;;;6.18;1.17;;;11.70;99.90;;;;;;7363827;32;20175;-62
2022/09/17 17:06:22;;;;;;;5.07;1.00;;;11.50;99.90;;;;;;7369411;32;20126;-62
2022/09/17 17:10:25;;;;;;;4.43;0.80;;;11.40;99.90;;;;;;7367618;32;20122;-63
2022/09/17 17:14:27;;;;;;;5.45;1.00;;;11.30;99.90;;;;;;7363472;32;20126;-62
2022/09/17 17:18:28;;;;;;;8.40;1.00;;;11.10;99.90;;;;;;7369485;32;20100;-62
2022/09/17 17:22:30;;;;;;;6.70;0.80;;;11.10;99.90;;;;;;7364234;32;20119;-65
2022/09/17 17:26:32;;;;;;;5.07;0.93;;;11.20;99.90;;;;;;7364933;32;20504;-65
2022/09/17 17:30:34;;;;;;;7.05;1.52;;;11.10;99.90;;;;;;7361096;32;20194;-66
2022/09/17 17:34:36;;;;;;;8.70;1.12;;;11.00;99.90;;;;;;7363210;32;20167;-63
2022/09/17 17:38:38;;;;;;;11.45;1.10;;;10.90;99.90;;;;;;7360259;32;20226;-62
2022/09/17 17:42:42;;;;;;;9.80;1.30;;;11.00;99.90;;;;;;7363522;32;20222;-63
2022/09/17 17:46:44;;;;;;;7.47;1.10;;;10.90;99.90;;;;;;7365642;32;20230;-65
2022/09/17 17:50:46;;;;;;;8.90;1.33;;;10.80;99.90;;;;;;7359816;32;20174;-64
2022/09/17 17:54:47;;;;;;;7.95;1.20;;;10.70;99.90;;;;;;7363558;32;20104;-61
2022/09/17 17:58:57;;;;;;;10.43;1.17;;;10.60;99.90;;;;;;7362039;32;20102;-62
2022/09/17 18:02:58;;;;;;;6.85;1.30;;;10.60;99.90;;;;;;7368536;32;20690;-62
2022/09/17 18:07:00;;;;;;;9.23;1.95;;;10.70;99.90;;;;;;7361863;32;20133;-63
2022/09/17 18:11:03;;;;;;;6.57;1.67;;;10.80;99.90;;;;;;7359300;32;20455;-61
2022/09/17 18:15:06;;;;;;;8.73;1.60;;;10.90;99.90;;;;;;7364021;32;20130;-62
2022/09/17 18:19:11;;;;;;;8.07;1.52;;;10.90;99.90;;;;;;7362188;32;20104;-61
2022/09/17 18:23:13;;;;;;;9.27;1.75;;;10.90;99.90;;;;;;7365006;32;20425;-61
2022/09/17 18:27:14;;;;;;;9.30;1.60;;;11.00;99.90;;;;;;7360950;32;20113;-62
2022/09/17 18:31:25;;;;;;;9.27;1.37;;;11.10;99.90;;;;;;7365125;32;20091;-61
2022/09/17 18:35:28;;;;;;;9.55;1.60;;;11.20;99.90;;;;;;7363824;32;20149;-62
2022/09/17 18:39:29;;;;;;;10.45;1.60;;;11.40;99.90;;;;;;7362733;32;20129;-63
2022/09/17 18:43:51;;;;;;;16.00;2.22;;;11.30;99.90;;;;;;7365588;32;20104;-63
2022/09/17 18:47:53;;;;;;;12.85;1.87;;;11.40;99.90;;;;;;7369641;32;20125;-63
2022/09/17 18:51:54;;;;;;;9.30;1.85;;;11.40;99.90;;;;;;7366643;32;20122;-62
2022/09/17 18:56:03;;;;;;;9.52;1.73;;;11.30;99.90;;;;;;7366865;32;20098;-64
2022/09/17 19:00:07;;;;;;;11.57;1.92;;;11.30;99.90;;;;;;7363328;32;20190;-64
2022/09/17 19:04:10;;;;;;;11.88;2.08;;;11.20;99.90;;;;;;7374989;32;20125;-65
2022/09/17 19:08:12;;;;;;;11.00;2.55;;;11.10;99.90;;;;;;7366968;32;20099;-63
2022/09/17 19:12:13;;;;;;;15.38;2.37;;;11.10;99.90;;;;;;7367792;32;20152;-64
2022/09/17 19:16:15;;;;;;;7.35;1.80;;;11.00;99.90;;;;;;7365389;32;20217;-63
2022/09/17 19:20:18;;;;;;;11.88;2.45;;;11.00;99.90;;;;;;7364372;32;20194;-62
2022/09/17 19:24:20;;;;;;;16.83;2.45;;;11.10;99.90;;;;;;7368353;32;20134;-63
2022/09/17 19:28:22;;;;;;;11.27;1.80;;;11.10;99.90;;;;;;7367947;32;20516;-63
2022/09/17 19:32:24;;;;;;;11.43;1.73;;;11.30;99.90;;;;;;7370388;32;20159;-63
2022/09/17 19:36:25;;;;;;;11.85;2.10;;;11.30;99.90;;;;;;7369566;32;20135;-60
2022/09/17 19:40:27;;;;;;;10.07;1.58;;;11.30;99.90;;;;;;7369445;32;20183;-61
2022/09/17 19:44:29;;;;;;;9.13;1.70;;;11.50;99.90;;;;;;7368030;32;20182;-63
2022/09/17 19:48:34;;;;;;;9.68;1.33;;;11.60;99.90;;;;;;7369138;32;20224;-61
2022/09/17 19:52:36;;;;;;;5.25;1.27;;;11.70;99.90;;;;;;7367030;32;20254;-61
2022/09/17 19:56:37;;;;;;;7.87;1.10;;;11.80;99.90;;;;;;7370132;32;20091;-61
2022/09/17 20:00:39;;;;;;;7.65;1.35;;;11.80;99.90;;;;;;7371384;32;20603;-62
2022/09/17 20:04:41;;;;;;;4.85;1.15;;;11.90;99.90;;;;;;7377752;32;20246;-60
2022/09/17 20:08:53;;;;;;;7.05;0.98;;;11.90;99.90;;;;;;7364536;32;20409;-61
2022/09/17 20:12:56;;;;;;;2.60;0.50;;;11.80;99.90;;;;;;7366336;32;20160;-61
2022/09/17 20:16:57;;;;;;;4.65;0.60;;;11.90;99.90;;;;;;7371053;32;20115;-61
2022/09/17 20:20:59;;;;;;;4.53;0.50;;;11.80;99.90;;;;;;7363773;32;20107;-63
2022/09/17 20:25:01;;;;;;;2.55;0.55;;;11.80;99.90;;;;;;7372266;32;20709;-62
2022/09/17 20:29:03;;;;;;;2.85;0.65;;;11.80;99.90;;;;;;7361420;32;20126;-61
2022/09/17 20:33:04;;;;;;;7.35;0.70;;;11.70;99.90;;;;;;7365385;32;20103;-62
2022/09/17 20:37:07;;;;;;;4.05;0.70;;;11.70;99.90;;;;;;7371082;32;20238;-62
2022/09/17 20:41:14;;;;;;;2.92;0.60;;;11.70;99.90;;;;;;7369442;32;20175;-62
2022/09/17 20:45:16;;;;;;;3.28;0.50;;;11.70;99.90;;;;;;7363247;32;20197;-61
2022/09/17 20:49:18;;;;;;;3.03;0.40;;;11.60;99.90;;;;;;7367297;32;20133;-62
2022/09/17 20:53:19;;;;;;;5.97;0.40;;;11.60;99.90;;;;;;7363756;32;20981;-63
2022/09/17 20:57:21;;;;;;;3.65;0.47;;;11.60;99.90;;;;;;7369202;32;20102;-62
2022/09/17 21:01:30;;;;;;;3.45;0.52;;;11.60;99.90;;;;;;7363780;32;20578;-59
2022/09/17 21:05:37;;;;;;;4.15;0.70;;;11.60;99.90;;;;;;7372068;32;20099;-59
2022/09/17 21:09:40;;;;;;;5.20;0.57;;;11.60;99.90;;;;;;7366091;32;20202;-59
2022/09/17 21:13:43;;;;;;;5.07;0.40;;;11.70;99.90;;;;;;7370653;32;20103;-59
2022/09/17 21:17:47;;;;;;;3.87;0.60;;;11.60;99.90;;;;;;7367857;32;20515;-60
2022/09/17 21:21:50;;;;;;;2.65;0.50;;;11.50;99.90;;;;;;7368290;32;20189;-59
2022/09/17 21:25:59;;;;;;;5.78;1.00;;;11.60;99.90;;;;;;7361472;32;20118;-59
2022/09/17 21:30:03;;;;;;;3.58;0.60;;;11.60;99.90;;;;;;7367473;32;20158;-60